createdAt,value
2022-10-22T00:00:16.366Z,100293.20
2022-10-22T00:02:46.787Z,100296.08
2022-10-22T00:05:17.324Z,100295.78
2022-10-22T00:07:47.815Z,100299.52
2022-10-22T00:10:19.061Z,100299.52
2022-10-22T00:12:52.497Z,100303.17
2022-10-22T00:15:23.287Z,100313.05
2022-10-22T00:17:54.321Z,100312.55
2022-10-22T00:20:25.382Z,100317.11
2022-10-22T00:22:56.154Z,100326.27
2022-10-22T00:25:26.611Z,100329.73
2022-10-22T00:27:56.924Z,100334.07
2022-10-22T00:30:27.346Z,100331.79
2022-10-22T00:32:57.747Z,100332.41
2022-10-22T00:35:28.522Z,100325.54
2022-10-22T00:37:59.204Z,100319.65
2022-10-22T00:40:29.584Z,100323.27
2022-10-22T00:42:59.953Z,100324.21
2022-10-22T00:45:30.890Z,100320.70
2022-10-22T00:48:04.600Z,100324.84
2022-10-22T00:50:39.066Z,100330.77
2022-10-22T00:53:14.438Z,100330.86
2022-10-22T00:55:47.408Z,100331.02
2022-10-22T00:58:21.234Z,100322.98
2022-10-22T01:00:51.848Z,100310.79
2022-10-22T01:03:22.602Z,100311.95
2022-10-22T01:05:57.825Z,100337.58
2022-10-22T01:08:37.823Z,100348.41
2022-10-22T01:11:19.215Z,100338.23
2022-10-22T01:13:58.305Z,100331.89
2022-10-22T01:16:38.381Z,100332.33
2022-10-22T01:19:30.167Z,100313.98
2022-10-22T01:22:06.356Z,100311.70
2022-10-22T01:24:50.636Z,100308.94
2022-10-22T01:27:31.387Z,100298.72
2022-10-22T01:30:05.703Z,100303.70
2022-10-22T01:32:42.452Z,100305.48
2022-10-22T01:35:16.859Z,100300.98
2022-10-22T01:37:50.952Z,100311.30
2022-10-22T01:40:22.845Z,100325.34
2022-10-22T01:43:04.468Z,100328.42
2022-10-22T01:45:39.190Z,100323.02
2022-10-22T01:48:21.939Z,100315.08
2022-10-22T01:51:07.677Z,100315.33
2022-10-22T01:53:49.978Z,100314.77
2022-10-22T01:56:42.698Z,100315.66
2022-10-22T01:59:23.400Z,100321.41
2022-10-22T02:02:00.840Z,100312.79
2022-10-22T02:04:35.117Z,100306.90
2022-10-22T02:07:10.163Z,100305.33
2022-10-22T02:09:42.993Z,100300.44
2022-10-22T02:12:14.642Z,100302.17
2022-10-22T02:14:48.353Z,100307.90
2022-10-22T02:17:22.814Z,100310.64
2022-10-22T02:19:58.160Z,100305.88
2022-10-22T02:22:29.737Z,100301.23
2022-10-22T02:25:00.211Z,100298.33
2022-10-22T02:27:34.254Z,100296.20
2022-10-22T02:30:10.097Z,100298.20
2022-10-22T02:32:44.637Z,100305.24
2022-10-22T02:35:20.350Z,100314.06
2022-10-22T02:37:53.264Z,100313.88
2022-10-22T02:40:24.907Z,100318.52
2022-10-22T02:42:56.202Z,100312.85
2022-10-22T02:45:27.369Z,100312.86
2022-10-22T02:47:58.445Z,100316.91
2022-10-22T02:50:29.864Z,100316.06
2022-10-22T02:53:00.528Z,100316.65
2022-10-22T02:55:31.722Z,100319.83
2022-10-22T02:58:02.393Z,100308.30
2022-10-22T03:00:32.915Z,100314.34
2022-10-22T03:03:03.403Z,100320.34
2022-10-22T03:05:34.389Z,100324.71
2022-10-22T03:08:04.928Z,100332.52
2022-10-22T03:10:35.589Z,100334.67
2022-10-22T03:13:06.631Z,100332.02
2022-10-22T03:15:37.581Z,100331.27
2022-10-22T03:18:08.166Z,100336.24
2022-10-22T03:20:39.319Z,100339.11
2022-10-22T03:23:10.275Z,100340.23
2022-10-22T03:25:43.442Z,100342.51
2022-10-22T03:28:18.005Z,100350.52
2022-10-22T03:30:49.005Z,100354.55
2022-10-22T03:33:20.214Z,100353.91
2022-10-22T03:35:51.242Z,100354.29
2022-10-22T03:38:21.766Z,100353.88
2022-10-22T03:40:52.884Z,100353.92
2022-10-22T03:43:23.371Z,100351.64
2022-10-22T03:45:54.297Z,100356.30
2022-10-22T03:48:25.104Z,100356.81
2022-10-22T03:50:55.445Z,100356.19
2022-10-22T03:53:26.029Z,100361.88
2022-10-22T03:55:56.392Z,100366.48
2022-10-22T03:58:27.111Z,100369.94
2022-10-22T04:00:57.966Z,100372.51
2022-10-22T04:03:28.783Z,100379.29
2022-10-22T04:06:04.134Z,100380.21
2022-10-22T04:08:34.799Z,100382.59
2022-10-22T04:11:06.073Z,100385.11
2022-10-22T04:13:36.731Z,100384.31
2022-10-22T04:16:11.913Z,100375.42
2022-10-22T04:18:42.681Z,100377.45
2022-10-22T04:21:15.344Z,100374.48
2022-10-22T04:23:49.621Z,100381.76
2022-10-22T04:26:21.353Z,100386.02
2022-10-22T04:28:52.895Z,100388.29
2022-10-22T04:31:25.551Z,100388.55
2022-10-22T04:33:58.016Z,100388.05
2022-10-22T04:36:29.502Z,100395.75
2022-10-22T04:39:01.569Z,100398.95
2022-10-22T04:41:33.823Z,100402.48
2022-10-22T04:44:05.841Z,100407.74
2022-10-22T04:46:37.418Z,100404.88
2022-10-22T04:49:08.198Z,100407.35
2022-10-22T04:51:38.549Z,100405.71
2022-10-22T04:54:08.897Z,100402.25
2022-10-22T04:56:39.586Z,100397.20
2022-10-22T04:59:12.597Z,100387.25
2022-10-22T05:01:45.178Z,100385.05
2022-10-22T05:04:18.012Z,100382.50
2022-10-22T05:06:49.893Z,100385.80
2022-10-22T05:09:21.802Z,100387.80
2022-10-22T05:11:53.938Z,100391.02
2022-10-22T05:14:26.161Z,100400.76
2022-10-22T05:16:57.332Z,100404.52
2022-10-22T05:19:30.798Z,100409.11
2022-10-22T05:22:03.105Z,100408.10
2022-10-22T05:24:37.113Z,100404.08
2022-10-22T05:27:08.012Z,100408.84
2022-10-22T05:29:38.626Z,100409.91
2022-10-22T05:32:09.084Z,100409.72
2022-10-22T05:34:39.734Z,100416.34
2022-10-22T05:37:10.505Z,100416.31
2022-10-22T05:39:41.708Z,100412.47
2022-10-22T05:42:12.324Z,100417.52
2022-10-22T05:44:42.984Z,100416.95
2022-10-22T05:47:14.253Z,100415.87
2022-10-22T05:49:44.927Z,100418.28
2022-10-22T05:52:15.892Z,100420.13
2022-10-22T05:54:46.924Z,100428.33
2022-10-22T05:57:17.581Z,100433.45
2022-10-22T05:59:48.518Z,100433.40
2022-10-22T06:02:19.523Z,100429.69
2022-10-22T06:04:50.147Z,100434.03
2022-10-22T06:07:20.847Z,100436.76
2022-10-22T06:09:51.346Z,100439.73
2022-10-22T06:12:21.893Z,100438.30
2022-10-22T06:14:52.246Z,100444.50
2022-10-22T06:17:22.657Z,100440.40
2022-10-22T06:19:53.701Z,100439.91
2022-10-22T06:22:24.089Z,100441.55
2022-10-22T06:24:54.658Z,100444.16
2022-10-22T06:27:26.049Z,100446.45
2022-10-22T06:29:57.018Z,100447.48
2022-10-22T06:32:27.745Z,100455.18
2022-10-22T06:34:58.869Z,100459.63
2022-10-22T06:37:29.247Z,100467.25
2022-10-22T06:39:59.964Z,100472.39
2022-10-22T06:42:32.009Z,100479.09
2022-10-22T06:45:03.261Z,100479.50
2022-10-22T06:47:34.352Z,100481.66
2022-10-22T06:50:05.337Z,100487.00
2022-10-22T06:52:36.089Z,100491.50
2022-10-22T06:55:07.566Z,100493.23
2022-10-22T06:57:38.505Z,100496.70
2022-10-22T07:00:11.563Z,100498.45
2022-10-22T07:02:42.419Z,100500.63
2022-10-22T07:05:13.360Z,100503.00
2022-10-22T07:07:44.076Z,100507.22
2022-10-22T07:10:14.813Z,100510.58
2022-10-22T07:12:45.243Z,100517.37
2022-10-22T07:15:15.928Z,100522.61
2022-10-22T07:17:46.565Z,100523.06
2022-10-22T07:20:18.816Z,100523.69
2022-10-22T07:22:49.608Z,100525.70
2022-10-22T07:25:20.526Z,100524.93
2022-10-22T07:27:52.506Z,100528.55
2022-10-22T07:30:23.727Z,100535.36
2022-10-22T07:32:54.833Z,100535.17
2022-10-22T07:35:25.512Z,100539.34
2022-10-22T07:37:56.941Z,100536.04
2022-10-22T07:40:27.714Z,100540.87
2022-10-22T07:42:58.102Z,100542.29
2022-10-22T07:45:29.103Z,100546.34
2022-10-22T07:48:00.586Z,100544.17
2022-10-22T07:50:31.176Z,100545.42
2022-10-22T07:53:01.977Z,100554.98
2022-10-22T07:55:32.726Z,100558.70
2022-10-22T07:58:03.390Z,100559.23
2022-10-22T08:00:33.921Z,100560.86
2022-10-22T08:03:04.665Z,100562.24
2022-10-22T08:05:35.660Z,100557.96
2022-10-22T08:08:06.568Z,100560.39
2022-10-22T08:10:37.510Z,100563.91
2022-10-22T08:13:08.658Z,100562.63
2022-10-22T08:15:40.145Z,100565.71
2022-10-22T08:18:10.898Z,100562.56
2022-10-22T08:20:42.629Z,100568.86
2022-10-22T08:23:13.019Z,100570.98
2022-10-22T08:25:43.442Z,100569.25
2022-10-22T08:28:17.427Z,100572.55
2022-10-22T08:30:50.563Z,100573.11
2022-10-22T08:33:28.155Z,100566.70
2022-10-22T08:35:58.806Z,100568.03
2022-10-22T08:38:31.307Z,100568.58
2022-10-22T08:41:09.781Z,100572.70
2022-10-22T08:44:02.256Z,100575.92
2022-10-22T08:46:46.619Z,100576.38
2022-10-22T08:49:21.236Z,100570.31
2022-10-22T08:51:52.654Z,100567.93
2022-10-22T08:54:34.766Z,100568.34
2022-10-22T08:57:21.059Z,100573.14
2022-10-22T09:00:03.190Z,100573.66
2022-10-22T09:02:43.461Z,100576.94
2022-10-22T09:05:34.010Z,100575.62
2022-10-22T09:08:05.900Z,100580.66
2022-10-22T09:10:41.341Z,100580.38
2022-10-22T09:13:17.145Z,100582.42
2022-10-22T09:15:50.442Z,100584.38
2022-10-22T09:18:34.248Z,100585.10
2022-10-22T09:21:14.686Z,100582.77
2022-10-22T09:23:57.301Z,100581.98
2022-10-22T09:26:28.974Z,100576.02
2022-10-22T09:29:02.490Z,100578.98
2022-10-22T09:31:35.209Z,100580.16
2022-10-22T09:34:07.839Z,100584.45
2022-10-22T09:36:40.368Z,100584.75
2022-10-22T09:39:25.957Z,100588.14
2022-10-22T09:41:56.473Z,100585.74
2022-10-22T09:44:27.213Z,100589.73
2022-10-22T09:46:57.980Z,100590.92
2022-10-22T09:49:34.569Z,100593.63
2022-10-22T09:52:22.517Z,100598.34
2022-10-22T09:54:55.072Z,100599.64
2022-10-22T09:57:29.581Z,100598.20
2022-10-22T10:00:00.241Z,100600.23
2022-10-22T10:02:38.594Z,100606.11
2022-10-22T10:05:19.581Z,100610.89
2022-10-22T10:07:50.077Z,100619.54
2022-10-22T10:10:26.656Z,100616.27
2022-10-22T10:13:02.531Z,100621.42
2022-10-22T10:15:39.304Z,100618.58
2022-10-22T10:18:23.601Z,100622.23
2022-10-22T10:21:01.261Z,100621.07
2022-10-22T10:23:35.048Z,100624.48
2022-10-22T10:26:10.922Z,100626.98
2022-10-22T10:29:06.810Z,100628.54
2022-10-22T10:31:46.927Z,100638.49
2022-10-22T10:34:29.616Z,100634.41
2022-10-22T10:37:14.079Z,100633.33
2022-10-22T10:40:04.381Z,100633.31
2022-10-22T10:42:38.865Z,100639.61
2022-10-22T10:45:21.821Z,100643.16
2022-10-22T10:48:16.293Z,100638.92
2022-10-22T10:50:57.994Z,100639.41
2022-10-22T10:53:40.921Z,100639.60
2022-10-22T10:56:26.499Z,100643.39
2022-10-22T10:59:04.191Z,100641.95
2022-10-22T11:01:39.477Z,100641.95
2022-10-22T11:04:46.518Z,100641.66
2022-10-22T11:07:34.271Z,100639.27
2022-10-22T11:10:16.262Z,100638.70
2022-10-22T11:12:51.488Z,100640.53
2022-10-22T11:15:29.275Z,100644.35
2022-10-22T11:18:07.397Z,100644.77
2022-10-22T11:20:49.918Z,100643.72
2022-10-22T11:23:29.468Z,100641.92
2022-10-22T11:26:01.601Z,100642.21
2022-10-22T11:28:38.810Z,100644.05
2022-10-22T11:31:15.677Z,100641.94
2022-10-22T11:34:00.454Z,100640.13
2022-10-22T11:36:42.738Z,100637.22
2022-10-22T11:39:33.088Z,100642.44
2022-10-22T11:42:07.094Z,100641.71
2022-10-22T11:44:59.731Z,100640.55
2022-10-22T11:47:33.622Z,100643.03
2022-10-22T11:50:20.315Z,100642.62
2022-10-22T11:53:01.198Z,100643.38
2022-10-22T11:55:46.020Z,100647.06
2022-10-22T11:58:35.873Z,100643.52
2022-10-22T12:01:40.886Z,100646.72
2022-10-22T12:04:40.830Z,100642.92
2022-10-22T12:07:35.708Z,100645.25
2022-10-22T12:10:20.154Z,100643.20
2022-10-22T12:12:56.933Z,100644.69
2022-10-22T12:15:30.499Z,100651.09
2022-10-22T12:18:06.411Z,100653.05
2022-10-22T12:20:37.430Z,100651.19
2022-10-22T12:23:10.609Z,100650.27
2022-10-22T12:25:41.268Z,100640.54
2022-10-22T12:28:16.044Z,100641.14
2022-10-22T12:30:46.751Z,100640.73
2022-10-22T12:33:23.069Z,100640.48
2022-10-22T12:35:57.610Z,100647.78
2022-10-22T12:38:28.217Z,100647.94
2022-10-22T12:41:00.056Z,100646.30
2022-10-22T12:43:33.466Z,100645.38
2022-10-22T12:46:04.114Z,100641.58
2022-10-22T12:48:39.724Z,100644.52
2022-10-22T12:51:15.281Z,100641.37
2022-10-22T12:53:49.443Z,100648.08
2022-10-22T12:56:24.880Z,100644.08
2022-10-22T12:58:59.336Z,100643.23
2022-10-22T13:01:33.420Z,100647.03
2022-10-22T13:04:21.949Z,100645.07
2022-10-22T13:06:54.496Z,100645.83
2022-10-22T13:09:27.660Z,100643.66
2022-10-22T13:12:05.311Z,100644.54
2022-10-22T13:14:38.599Z,100640.03
2022-10-22T13:17:13.426Z,100644.56
2022-10-22T13:19:47.137Z,100642.42
2022-10-22T13:22:32.932Z,100641.42
2022-10-22T13:25:23.449Z,100641.23
2022-10-22T13:27:56.630Z,100643.41
2022-10-22T13:30:28.818Z,100644.15
2022-10-22T13:33:01.080Z,100645.18
2022-10-22T13:35:33.729Z,100644.75
2022-10-22T13:38:04.924Z,100643.82
2022-10-22T13:40:35.797Z,100641.14
2022-10-22T13:43:07.087Z,100641.34
2022-10-22T13:45:38.084Z,100641.55
2022-10-22T13:48:13.803Z,100644.48
2022-10-22T13:50:45.081Z,100643.57
2022-10-22T13:53:19.904Z,100642.40
2022-10-22T13:55:50.985Z,100644.59
2022-10-22T13:58:24.472Z,100647.35
2022-10-22T14:00:57.517Z,100644.06
2022-10-22T14:03:31.592Z,100645.30
2022-10-22T14:06:02.543Z,100646.88
2022-10-22T14:08:34.600Z,100647.20
2022-10-22T14:11:05.418Z,100646.13
2022-10-22T14:13:36.142Z,100648.11
2022-10-22T14:16:08.864Z,100643.46
2022-10-22T14:18:39.373Z,100648.50
2022-10-22T14:21:12.092Z,100648.95
2022-10-22T14:23:44.162Z,100651.41
2022-10-22T14:26:23.663Z,100651.20
2022-10-22T14:29:11.003Z,100655.74
2022-10-22T14:31:44.762Z,100660.61
2022-10-22T14:34:17.009Z,100662.95
2022-10-22T14:36:47.590Z,100663.54
2022-10-22T14:39:18.588Z,100669.56
2022-10-22T14:41:49.696Z,100671.67
2022-10-22T14:44:20.626Z,100672.98
2022-10-22T14:46:54.368Z,100681.39
2022-10-22T14:49:24.931Z,100687.31
2022-10-22T14:51:55.937Z,100696.25
2022-10-22T14:54:26.447Z,100692.46
2022-10-22T14:56:57.019Z,100692.60
2022-10-22T14:59:27.792Z,100695.56
2022-10-22T15:01:58.481Z,100690.42
2022-10-22T15:04:30.563Z,100689.67
2022-10-22T15:07:01.321Z,100685.48
2022-10-22T15:09:32.075Z,100681.38
2022-10-22T15:12:03.012Z,100684.13
2022-10-22T15:14:33.566Z,100686.52
2022-10-22T15:17:04.471Z,100689.06
2022-10-22T15:19:35.410Z,100692.11
2022-10-22T15:22:06.971Z,100692.77
2022-10-22T15:24:38.092Z,100698.11
2022-10-22T15:27:09.156Z,100702.05
2022-10-22T15:29:40.750Z,100704.61
2022-10-22T15:32:11.748Z,100709.57
2022-10-22T15:34:43.361Z,100712.09
2022-10-22T15:37:15.310Z,100714.41
2022-10-22T15:39:46.078Z,100714.48
2022-10-22T15:42:16.570Z,100716.50
2022-10-22T15:44:48.198Z,100726.46
2022-10-22T15:47:19.076Z,100727.86
2022-10-22T15:49:49.755Z,100726.20
2022-10-22T15:52:21.594Z,100726.52
2022-10-22T15:54:52.259Z,100725.68
2022-10-22T15:57:23.062Z,100732.97
2022-10-22T15:59:53.844Z,100732.48
2022-10-22T16:02:25.083Z,100732.20
2022-10-22T16:04:56.451Z,100736.56
2022-10-22T16:07:27.400Z,100743.69
2022-10-22T16:10:00.198Z,100745.91
2022-10-22T16:12:30.814Z,100744.50
2022-10-22T16:15:01.634Z,100744.06
2022-10-22T16:17:32.636Z,100749.75
2022-10-22T16:20:04.006Z,100750.51
2022-10-22T16:22:35.274Z,100753.64
2022-10-22T16:25:06.783Z,100753.19
2022-10-22T16:27:38.019Z,100758.77
2022-10-22T16:30:09.818Z,100763.80
2022-10-22T16:32:40.807Z,100770.13
2022-10-22T16:35:12.716Z,100771.91
2022-10-22T16:37:43.972Z,100778.60
2022-10-22T16:40:15.989Z,100782.69
2022-10-22T16:42:46.865Z,100787.10
2022-10-22T16:45:18.253Z,100783.20
2022-10-22T16:47:49.426Z,100790.21
2022-10-22T16:50:19.999Z,100796.16
2022-10-22T16:52:51.461Z,100799.77
2022-10-22T16:55:22.162Z,100802.41
2022-10-22T16:57:55.770Z,100803.06
2022-10-22T17:00:26.373Z,100806.09
2022-10-22T17:02:57.775Z,100804.44
2022-10-22T17:05:28.264Z,100810.79
2022-10-22T17:07:59.502Z,100809.97
2022-10-22T17:10:30.045Z,100811.08
2022-10-22T17:13:00.773Z,100815.98
2022-10-22T17:15:31.397Z,100823.41
2022-10-22T17:18:04.151Z,100826.23
2022-10-22T17:20:34.581Z,100832.63
2022-10-22T17:23:05.512Z,100840.38
2022-10-22T17:25:43.109Z,100841.91
2022-10-22T17:28:14.002Z,100850.27
2022-10-22T17:30:44.626Z,100850.83
2022-10-22T17:33:15.457Z,100851.85
2022-10-22T17:35:46.019Z,100853.15
2022-10-22T17:38:16.935Z,100853.38
2022-10-22T17:40:47.967Z,100852.90
2022-10-22T17:43:18.610Z,100854.77
2022-10-22T17:45:49.187Z,100857.47
2022-10-22T17:48:19.750Z,100855.06
2022-10-22T17:50:51.498Z,100859.27
2022-10-22T17:53:23.469Z,100862.55
2022-10-22T17:56:02.049Z,100863.11
2022-10-22T17:58:33.016Z,100862.59
2022-10-22T18:01:03.917Z,100860.64
2022-10-22T18:03:35.094Z,100859.58
2022-10-22T18:06:10.956Z,100861.46
2022-10-22T18:08:41.702Z,100860.10
2022-10-22T18:11:14.442Z,100868.45
2022-10-22T18:13:45.004Z,100867.08
2022-10-22T18:16:15.926Z,100868.71
2022-10-22T18:18:48.104Z,100869.66
2022-10-22T18:21:18.854Z,100874.33
2022-10-22T18:23:49.644Z,100873.13
2022-10-22T18:26:24.272Z,100872.92
2022-10-22T18:28:57.624Z,100872.42
2022-10-22T18:31:30.353Z,100871.52
2022-10-22T18:34:01.547Z,100872.66
2022-10-22T18:36:32.580Z,100873.64
2022-10-22T18:39:05.128Z,100870.75
2022-10-22T18:41:36.594Z,100880.17
2022-10-22T18:44:08.410Z,100880.55
2022-10-22T18:46:40.138Z,100885.15
2022-10-22T18:49:18.164Z,100889.98
2022-10-22T18:51:52.681Z,100890.02
2022-10-22T18:54:24.634Z,100889.34
2022-10-22T18:57:00.544Z,100891.17
2022-10-22T18:59:31.786Z,100891.11
2022-10-22T19:02:02.542Z,100896.61
2022-10-22T19:04:36.966Z,100897.05
2022-10-22T19:09:40.433Z,100897.11
2022-10-22T19:12:15.034Z,100896.70
2022-10-22T19:14:45.783Z,100898.83
2022-10-22T19:17:16.245Z,100898.08
2022-10-22T19:19:47.865Z,100896.94
2022-10-22T19:22:18.557Z,100897.58
2022-10-22T19:24:50.795Z,100895.09
2022-10-22T19:27:21.759Z,100895.94
2022-10-22T19:29:52.162Z,100900.94
2022-10-22T19:32:23.222Z,100905.56
2022-10-22T19:34:54.177Z,100908.69
2022-10-22T19:37:25.000Z,100912.56
2022-10-22T19:39:55.454Z,100911.45
2022-10-22T19:42:26.402Z,100922.66
2022-10-22T19:44:57.694Z,100925.90
2022-10-22T19:47:29.246Z,100922.48
2022-10-22T19:49:59.825Z,100920.10
2022-10-22T19:52:30.215Z,100918.98
2022-10-22T19:55:00.553Z,100921.97
2022-10-22T19:57:31.279Z,100926.70
2022-10-22T20:00:01.962Z,100927.48
2022-10-22T20:02:32.390Z,100935.99
2022-10-22T20:05:03.204Z,100936.38
2022-10-22T20:07:33.954Z,100938.33
2022-10-22T20:10:05.134Z,100939.65
2022-10-22T20:12:35.811Z,100935.11
2022-10-22T20:15:07.815Z,100936.35
2022-10-22T20:17:38.303Z,100932.85
2022-10-22T20:20:09.935Z,100934.77
2022-10-22T20:22:42.948Z,100937.44
2022-10-22T20:25:14.334Z,100938.45
2022-10-22T20:27:45.094Z,100944.58
2022-10-22T20:32:52.000Z,100949.39
2022-10-22T20:35:22.382Z,100949.58
2022-10-22T20:37:53.153Z,100948.16
2022-10-22T20:40:26.057Z,100945.46
2022-10-22T20:42:56.667Z,100947.14
2022-10-22T20:45:28.083Z,100946.45
2022-10-22T20:48:02.704Z,100947.52
2022-10-22T20:50:34.604Z,100950.23
2022-10-22T20:53:04.953Z,100949.02
2022-10-22T20:55:36.190Z,100946.92
2022-10-22T20:58:06.545Z,100945.17
2022-10-22T21:00:39.363Z,100947.58
2022-10-22T21:03:10.010Z,100948.95
2022-10-22T21:05:40.700Z,100949.80
2022-10-22T21:08:17.193Z,100950.61
2022-10-22T21:10:49.139Z,100951.98
2022-10-22T21:13:19.791Z,100950.80
2022-10-22T21:15:50.244Z,100954.25
2022-10-22T21:18:21.091Z,100954.61
2022-10-22T21:20:51.449Z,100953.35
2022-10-22T21:23:21.819Z,100954.49
2022-10-22T21:25:58.330Z,100950.20
2022-10-22T21:31:04.641Z,100951.75
2022-10-22T21:33:37.703Z,100950.66
2022-10-22T21:36:10.006Z,100950.48
2022-10-22T21:38:40.796Z,100953.00
2022-10-22T21:41:12.844Z,100955.48
2022-10-22T21:43:45.604Z,100953.54
2022-10-22T21:46:19.726Z,100954.66
2022-10-22T21:48:53.546Z,100955.66
2022-10-22T21:51:26.077Z,100961.66
2022-10-22T21:53:56.755Z,100961.66
2022-10-22T21:56:29.126Z,100958.69
2022-10-22T21:58:59.568Z,100957.80
2022-10-22T22:01:30.140Z,100959.89
2022-10-22T22:04:00.628Z,100958.69
2022-10-22T22:06:33.822Z,100959.30
2022-10-22T22:09:06.396Z,100957.27
2022-10-22T22:11:37.300Z,100952.14
2022-10-22T22:14:07.952Z,100954.12
2022-10-22T22:16:38.294Z,100954.89
2022-10-22T22:19:10.471Z,100958.07
2022-10-22T22:21:41.913Z,100955.73
2022-10-22T22:24:14.408Z,100950.96
2022-10-22T22:26:44.812Z,100953.13
2022-10-22T22:29:15.153Z,100953.01
2022-10-22T22:31:45.963Z,100954.80
2022-10-22T22:34:17.790Z,100953.66
2022-10-22T22:36:49.800Z,100954.45
2022-10-22T22:39:23.466Z,100952.48
2022-10-22T22:41:54.306Z,100956.92
2022-10-22T22:44:25.002Z,100956.86
2022-10-22T22:46:55.344Z,100955.25
2022-10-22T22:49:25.697Z,100954.73
2022-10-22T22:51:56.898Z,100949.27
2022-10-22T22:54:27.931Z,100953.41
2022-10-22T22:56:58.804Z,100956.63
2022-10-22T22:59:29.490Z,100953.55
2022-10-22T23:02:00.170Z,100952.80
2022-10-22T23:04:30.822Z,100950.70
2022-10-22T23:07:01.645Z,100951.84
2022-10-22T23:09:32.020Z,100947.36
2022-10-22T23:12:02.466Z,100945.35
2022-10-22T23:14:32.851Z,100949.60
2022-10-22T23:17:03.804Z,100948.17
2022-10-22T23:19:34.403Z,100958.14
2022-10-22T23:22:04.821Z,100958.14
2022-10-22T23:24:35.150Z,100960.88
2022-10-22T23:27:06.690Z,100957.02
2022-10-22T23:29:37.366Z,100957.48
2022-10-22T23:32:14.246Z,100956.90
2022-10-22T23:34:44.599Z,100957.75
2022-10-22T23:37:15.379Z,100955.65
2022-10-22T23:39:45.845Z,100952.87
2022-10-22T23:42:16.462Z,100951.34
2022-10-22T23:44:46.800Z,100952.83
2022-10-22T23:47:17.174Z,100953.49
2022-10-22T23:49:47.487Z,100951.86
2022-10-22T23:52:17.952Z,100950.50
2022-10-22T23:54:49.272Z,100948.15
2022-10-22T23:57:19.677Z,100945.91
2022-10-22T23:59:50.007Z,100943.39
